Skip Navigation Links
NOAA logo - Click to go to the NOAA homepage
NOAA's National Weather Service
Alaska Aviation Weather Unit
  NWS logo - Click to go to the NWS homepage
Left Navbar Graphic     09 AKDT = 17 GMT

   
NOAA is celebrating 200 years of science, service, and stewardship. Visit the NOAA 200th celebration Web site to learn more.
USA.gov is the U.S. Government's official Web portal to all Federal, state and local government Web resources and services.
Facebook
NWS on Facebook

Important Change Regarding the AAWU Web Presence

 

Over the last several months, the AAWU has been working to navigate its webpages to a nationally supported server. Security, as well as other needs, have necessitated the change.  In the process, we have made an effort to enhance the functionality of our website, as well as some of our products. As of June 20, 2017, aawu.arh.noaa.gov will be discontinued. The new AAWU web address is weather.gov/aawu. It is now live and will run in-parallel with the old site until it is discontinued. Please send any feedback or questions regarding the new webpages to nws.ar.aawu.webauthors@noaa.gov.  Thank you for your patience during this time of transition.
AAWU Home :: Display TAF Add Bookmark
TAF CYEV 271717Z 2717/2801 26008KT P6SM OVC008 TEMPO 2717/2719
     2SM BR OVC005
    FM271900 30008KT P6SM SCT008 BKN025 TEMPO 2719/2721 BKN008
    FM272100 31008KT P6SM SCT025
    RMK NXT FCST BY 271900Z=

METAR CYEV 271100Z 27004KT 230V310 10SM OVC004 00/M00 A3001 RMK ST8 SLP168= METAR CYEV 271200Z 27007KT 6SM BR OVC004 00/M00 A3003 RMK ST8 SLP176= SPECI CYEV 271238Z 27005KT 250V320 2 1/2SM BR OVC003 00/M00 A3004 RMK FG2ST6 SLP180= METAR CYEV 271300Z 29006KT 260V320 1SM R06/P6000FT/D BR OVC002 00/M00 A3004 RMK FG6ST2 SLP181= METAR CYEV 271400Z 28006KT 230V300 1SM R06/P6000FT/U BR OVC002 00/M00 A3006 RMK FG6ST2 SLP186= SPECI CYEV 271423Z 27007KT 230V290 1/2SM R06/6000FT/D FG VV002 00/M00 A3006 RMK FG8 SLP186= SPECI CYEV 271441Z 26004KT 240V300 1SM R06/P6000FT/N BR VV003 01/00 A3006 RMK FG8 SLP188= SPECI CYEV 271449Z 25007KT 1/2SM R06/3000VP6000FT/D FG VV003 00/M00 A3007 RMK FG8 SLP189= METAR CYEV 271500Z 26006KT 240V300 1/2SM R06/5500VP6000FT/U FG VV003 00/M00 A3007 RMK FG8 SLP190= SPECI CYEV 271504Z 28005KT 240V300 2SM BR OVC005 01/00 A3007 RMK ST8 SLP190= SPECI CYEV 271547Z 26008KT 2SM BR OVC004 01/00 A3007 RMK ST8 SLP191= SPECI CYEV 271557Z 26008KT 4SM BR OVC005 01/M00 A3008 RMK ST8 SLP192= METAR CYEV 271600Z 27005KT 230V290 4SM BR OVC005 01/M00 A3008 RMK ST8 SLP193= SPECI CYEV 271629Z 26005KT 230V320 6SM BR OVC007 02/M00 A3009 RMK ST8 SLP196= METAR CYEV 271700Z 26007KT 230V290 10SM VCFG OVC007 02/M00 A3009 RMK ST8 SLP197=
 Alaska TAF Map

NOAA's National Weather Service
Alaska Aviation Weather Unit
6930 Sand Lake Road
Anchorage, AK 99502-1845
Disclaimer
Credits
Glossary
Privacy Policy
About Us
Career Opportunities
Contact AAWU Internet Services Site last modified: April, 17th 2012